Time;durP1;ratioP1;P1;durP2;ratioP2;P2;SDS_P1;SDS_P2;PMS_P1;PMS_P2;Temp;Humidity;BMP_temperature;BMP_pressure;BME280_temperature;BME280_humidity;BME280_pressure;Samples;Min_cycle;Max_cycle;Signal;HPM_P1;HPM_P2
2023/09/03 00:01:11;;;;;;;;;;;;;;;24.95;45.79;102699.31;5063856;28;19955;-73
2023/09/03 00:03:37;;;;;;;;;;;;;;;24.95;45.80;102695.81;5054435;28;19952;-72
2023/09/03 00:06:02;;;;;;;;;;;;;;;24.95;45.71;102690.47;5059954;28;19955;-72
2023/09/03 00:08:27;;;;;;;;;;;;;;;24.94;45.81;102680.81;5060597;28;19941;-71
2023/09/03 00:10:54;;;;;;;;;;;;;;;24.94;45.81;102680.81;5064962;28;20433;-71
2023/09/03 00:13:21;;;;;;;;;;;;;;;24.95;45.73;102682.47;5059128;28;20012;-72
2023/09/03 00:15:46;;;;;;;;;;;;;;;24.94;45.68;102678.16;5060440;28;20694;-71
2023/09/03 00:18:12;;;;;;;;;;;;;;;24.94;45.65;102670.16;5061858;28;21924;-71
2023/09/03 00:20:41;;;;;;;;;;;;;;;24.92;45.63;102677.50;5054452;28;19958;-71
2023/09/03 00:23:06;;;;;;;;;;;;;;;24.92;45.82;102661.50;5063395;28;19969;-73
2023/09/03 00:25:37;;;;;;;;;;;;;;;24.93;45.66;102671.16;5062203;28;19948;-72
2023/09/03 00:28:03;;;;;;;;;;;;;;;24.93;45.63;102672.00;5057706;28;20037;-72
2023/09/03 00:30:29;;;;;;;;;;;;;;;24.91;45.59;102667.84;5053844;28;19940;-72
2023/09/03 00:32:54;;;;;;;;;;;;;;;24.91;45.55;102658.00;5061263;28;19949;-73
2023/09/03 00:35:21;;;;;;;;;;;;;;;24.89;45.50;102654.69;5039924;28;19986;-71
2023/09/03 00:37:46;;;;;;;;;;;;;;;24.88;45.46;102655.69;5052472;28;19991;-71
2023/09/03 00:40:11;;;;;;;;;;;;;;;24.89;45.73;102660.03;5060864;28;19992;-73
2023/09/03 00:42:37;;;;;;;;;;;;;;;24.89;45.63;102673.34;5059786;28;19992;-72
2023/09/03 00:45:03;;;;;;;;;;;;;;;24.89;45.58;102677.84;5061067;28;19946;-71
2023/09/03 00:47:28;;;;;;;;;;;;;;;24.90;45.70;102672.34;5057200;28;19955;-71
2023/09/03 00:49:54;;;;;;;;;;;;;;;24.90;45.65;102676.84;5062773;28;19973;-72
2023/09/03 00:52:21;;;;;;;;;;;;;;;24.91;45.54;102666.00;5064593;28;19953;-71
2023/09/03 00:54:47;;;;;;;;;;;;;;;24.90;45.61;102682.16;5061441;28;21821;-71
2023/09/03 00:57:13;;;;;;;;;;;;;;;24.89;45.53;102684.00;5059148;28;19962;-72
2023/09/03 00:59:40;;;;;;;;;;;;;;;24.91;45.64;102694.50;5058254;28;19956;-72
2023/09/03 01:02:05;;;;;;;;;;;;;;;24.90;45.57;102692.84;5066502;28;19944;-71
2023/09/03 01:04:31;;;;;;;;;;;;;;;24.90;45.65;102699.00;5059500;28;19947;-72
2023/09/03 01:06:57;;;;;;;;;;;;;;;24.89;45.49;102696.50;5055202;28;19947;-72
2023/09/03 01:09:22;;;;;;;;;;;;;;;24.90;45.48;102696.31;5062772;28;20094;-73
2023/09/03 01:11:53;;;;;;;;;;;;;;;24.91;45.68;102700.66;5062268;28;20350;-73
2023/09/03 01:14:37;;;;;;;;;;;;;;;24.88;45.49;102687.66;5059722;28;19963;-73
2023/09/03 01:17:21;;;;;;;;;;;;;;;24.89;45.62;102675.19;5059271;28;20362;-72
2023/09/03 01:20:05;;;;;;;;;;;;;;;24.89;45.55;102673.34;5052245;28;19959;-73
2023/09/03 01:22:49;;;;;;;;;;;;;;;24.87;45.61;102663.84;5060825;28;19968;-74
2023/09/03 01:25:14;;;;;;;;;;;;;;;24.89;45.56;102667.19;5056400;28;20418;-73
2023/09/03 01:28:06;;;;;;;;;;;;;;;24.87;45.49;102672.69;5055804;28;19938;-73
2023/09/03 01:30:31;;;;;;;;;;;;;;;24.87;45.45;102671.84;5058102;28;19975;-72
2023/09/03 01:32:57;;;;;;;;;;;;;;;24.88;45.44;102670.84;5055083;28;19983;-74
2023/09/03 01:35:24;;;;;;;;;;;;;;;24.88;45.71;102668.19;5060496;28;19942;-74
2023/09/03 01:37:49;;;;;;;;;;;;;;;24.88;45.43;102660.19;5054613;28;20021;-74
2023/09/03 01:40:14;;;;;;;;;;;;;;;24.85;45.46;102661.38;5086547;27;19960;-74
2023/09/03 01:42:40;;;;;;;;;;;;;;;24.87;45.51;102655.88;5061665;28;20443;-73
2023/09/03 01:45:06;;;;;;;;;;;;;;;24.86;45.46;102640.88;5057410;28;19953;-72
2023/09/03 01:48:04;;;;;;;;;;;;;;;24.84;45.49;102634.91;5051941;28;19944;-73
2023/09/03 01:50:33;;;;;;;;;;;;;;;24.84;45.49;102630.41;5031590;28;19947;-73
2023/09/03 01:53:04;;;;;;;;;;;;;;;24.84;45.57;102632.22;5060313;28;19941;-73
2023/09/03 01:55:33;;;;;;;;;;;;;;;24.78;45.55;102617.75;5090462;27;19955;-73
2023/09/03 01:58:00;;;;;;;;;;;;;;;24.86;45.38;102627.56;5052216;28;20054;-73
2023/09/03 02:00:26;;;;;;;;;;;;;;;24.87;45.29;102621.22;5054572;28;19956;-73
2023/09/03 02:02:52;;;;;;;;;;;;;;;24.85;45.53;102620.56;5056705;28;19943;-72
2023/09/03 02:05:17;;;;;;;;;;;;;;;24.85;45.36;102617.91;5058996;28;19977;-73
2023/09/03 02:07:43;;;;;;;;;;;;;;;24.83;45.33;102611.91;5051013;28;20027;-73
2023/09/03 02:10:09;;;;;;;;;;;;;;;24.82;45.33;102611.09;5056196;28;19973;-73
2023/09/03 02:12:35;;;;;;;;;;;;;;;24.85;45.25;102617.91;5057132;28;19982;-72
2023/09/03 02:15:00;;;;;;;;;;;;;;;24.83;45.52;102614.56;5055962;28;20389;-73
2023/09/03 02:17:26;;;;;;;;;;;;;;;24.85;45.48;102617.91;5052595;28;20138;-72
2023/09/03 02:19:53;;;;;;;;;;;;;;;24.83;45.51;102620.75;5055361;28;19962;-73
2023/09/03 02:22:18;;;;;;;;;;;;;;;24.82;45.44;102629.75;5054817;28;19944;-72
2023/09/03 02:24:44;;;;;;;;;;;;;;;24.81;45.40;102628.06;5054183;28;20330;-72
2023/09/03 02:27:10;;;;;;;;;;;;;;;24.82;45.37;102615.59;5055387;28;20035;-72
2023/09/03 02:29:35;;;;;;;;;;;;;;;24.84;45.38;102625.06;5070514;28;19941;-72
2023/09/03 02:32:01;;;;;;;;;;;;;;;24.83;45.48;102625.25;5050111;28;19973;-72
2023/09/03 02:34:26;;;;;;;;;;;;;;;24.82;45.48;102629.75;5054768;28;19949;-73
2023/09/03 02:36:51;;;;;;;;;;;;;;;24.81;45.32;102641.41;5055746;28;19945;-72
2023/09/03 02:39:17;;;;;;;;;;;;;;;24.82;45.38;102644.88;5056025;28;20277;-72
2023/09/03 02:41:42;;;;;;;;;;;;;;;24.82;45.37;102650.22;5056022;28;19942;-72
2023/09/03 02:44:09;;;;;;;;;;;;;;;24.81;45.29;102660.03;5054195;28;19953;-71
2023/09/03 02:46:35;;;;;;;;;;;;;;;24.80;45.61;102658.38;5055179;28;19947;-72
2023/09/03 02:49:00;;;;;;;;;;;;;;;24.81;45.32;102660.03;5054759;28;19964;-71
2023/09/03 02:51:28;;;;;;;;;;;;;;;24.80;45.46;102669.03;5054755;28;20401;-72
2023/09/03 02:53:54;;;;;;;;;;;;;;;24.80;45.45;102673.53;5069486;28;19949;-71
2023/09/03 02:56:23;;;;;;;;;;;;;;;24.78;45.46;102671.03;5060761;28;19956;-71
2023/09/03 02:58:49;;;;;;;;;;;;;;;24.77;45.51;102669.34;5058793;28;20295;-72
2023/09/03 03:01:16;;;;;;;;;;;;;;;24.79;45.29;102667.38;5094123;27;19961;-73
2023/09/03 03:03:41;;;;;;;;;;;;;;;24.77;45.46;102663.19;5060007;28;19943;-72
2023/09/03 03:06:07;;;;;;;;;;;;;;;24.77;45.48;102656.03;5061504;28;19983;-73
2023/09/03 03:08:33;;;;;;;;;;;;;;;24.75;45.54;102642.06;5059047;28;19933;-71
2023/09/03 03:11:12;;;;;;;;;;;;;;;24.76;45.52;102645.53;5063614;28;19985;-72
2023/09/03 03:13:45;;;;;;;;;;;;;;;24.75;45.26;102657.22;5056994;28;20286;-72
2023/09/03 03:16:11;;;;;;;;;;;;;;;24.76;45.51;102665.03;5065364;28;19961;-72
2023/09/03 03:18:38;;;;;;;;;;;;;;;24.74;45.43;102651.03;5059087;28;20426;-73
2023/09/03 03:21:30;;;;;;;;;;;;;;;24.75;45.48;102651.88;5065349;28;20056;-72
2023/09/03 03:24:04;;;;;;;;;;;;;;;24.77;45.30;102661.34;5062634;28;19942;-73
2023/09/03 03:26:34;;;;;;;;;;;;;;;24.75;45.35;102657.22;5059780;28;19950;-70
2023/09/03 03:29:00;;;;;;;;;;;;;;;24.72;45.37;102655.72;5078264;28;19991;-71
2023/09/03 03:31:27;;;;;;;;;;;;;;;24.72;45.37;102658.38;5055909;28;19951;-71
2023/09/03 03:33:55;;;;;;;;;;;;;;;24.74;45.32;102663.53;5058920;28;19943;-72
2023/09/03 03:36:23;;;;;;;;;;;;;;;24.73;45.44;102665.38;5052548;28;20399;-72
2023/09/03 03:38:48;;;;;;;;;;;;;;;24.73;45.57;102661.88;5059344;28;19947;-72
2023/09/03 03:41:15;;;;;;;;;;;;;;;24.72;45.33;102655.72;5060364;28;19961;-72
2023/09/03 03:43:43;;;;;;;;;;;;;;;24.73;45.39;102653.88;5061688;28;20355;-72
2023/09/03 03:46:10;;;;;;;;;;;;;;;24.71;45.47;102656.72;5079605;28;19943;-72
2023/09/03 03:48:36;;;;;;;;;;;;;;;24.71;45.36;102660.22;5058575;28;19964;-73
2023/09/03 03:51:02;;;;;;;;;;;;;;;24.71;45.35;102649.56;5054687;28;20018;-72
2023/09/03 03:53:27;;;;;;;;;;;;;;;24.73;45.28;102640.56;5063037;28;20470;-72
2023/09/03 03:55:56;;;;;;;;;;;;;;;24.74;45.21;102640.38;5058747;28;19955;-71
2023/09/03 03:58:22;;;;;;;;;;;;;;;24.73;45.24;102651.22;5055633;28;20468;-73
2023/09/03 04:00:47;;;;;;;;;;;;;;;24.72;45.35;102661.03;5059147;28;19961;-73
2023/09/03 04:03:13;;;;;;;;;;;;;;;24.49;45.21;102630.78;5061187;28;20500;-71
2023/09/03 04:05:38;;;;;;;;;;;;;;;24.53;45.16;102637.41;5053020;28;19945;-71
2023/09/03 04:08:04;;;;;;;;;;;;;;;24.70;45.26;102673.69;5056460;28;19945;-71
2023/09/03 04:10:29;;;;;;;;;;;;;;;24.72;45.30;102679.69;5054488;28;20426;-71
2023/09/03 04:12:56;;;;;;;;;;;;;;;24.72;45.35;102690.34;5063081;28;20609;-73
2023/09/03 04:15:21;;;;;;;;;;;;;;;24.69;45.37;102698.69;5057979;28;20383;-72
2023/09/03 04:17:47;;;;;;;;;;;;;;;24.69;45.32;102696.84;5057101;28;19944;-71
2023/09/03 04:20:13;;;;;;;;;;;;;;;24.70;45.17;102703.00;5054168;28;20437;-72
2023/09/03 04:22:38;;;;;;;;;;;;;;;24.69;45.30;102701.34;5060510;28;19949;-71
2023/09/03 04:25:04;;;;;;;;;;;;;;;24.70;45.36;102703.84;5058910;28;19949;-72
2023/09/03 04:27:30;;;;;;;;;;;;;;;24.68;45.19;102707.69;5052951;28;20406;-73
2023/09/03 04:29:55;;;;;;;;;;;;;;;24.68;45.42;102711.16;5052992;28;19945;-71
2023/09/03 04:32:21;;;;;;;;;;;;;;;24.68;45.33;102713.00;5060760;28;19980;-72
2023/09/03 04:34:47;;;;;;;;;;;;;;;24.70;45.24;102719.00;5060647;28;19948;-72
2023/09/03 04:37:13;;;;;;;;;;;;;;;24.68;45.34;102718.31;5054563;28;20667;-72
2023/09/03 04:39:38;;;;;;;;;;;;;;;24.69;45.32;102725.31;5057585;28;19960;-72
2023/09/03 04:42:04;;;;;;;;;;;;;;;24.66;45.26;102723.81;5054250;28;19982;-73
2023/09/03 04:44:31;;;;;;;;;;;;;;;24.66;45.27;102734.47;5060270;28;19954;-71
2023/09/03 04:46:56;;;;;;;;;;;;;;;24.68;45.24;102729.81;5061086;28;19947;-71
2023/09/03 04:49:23;;;;;;;;;;;;;;;24.66;45.20;102745.13;5060139;28;19969;-72
2023/09/03 04:51:48;;;;;;;;;;;;;;;24.66;45.33;102750.47;5088948;27;19946;-72
2023/09/03 04:54:14;;;;;;;;;;;;;;;24.67;45.14;102749.47;5054848;28;19944;-72
2023/09/03 04:56:40;;;;;;;;;;;;;;;24.64;45.21;102748.97;5061375;28;19955;-72
2023/09/03 04:59:05;;;;;;;;;;;;;;;24.66;45.03;102752.28;5057097;28;19949;-72
2023/09/03 05:01:32;;;;;;;;;;;;;;;24.65;45.26;102753.28;5082189;28;19998;-72
2023/09/03 05:03:58;;;;;;;;;;;;;;;24.66;45.07;102757.63;5060953;28;20000;-71
2023/09/03 05:06:24;;;;;;;;;;;;;;;24.65;45.09;102753.28;5059322;28;19944;-72
2023/09/03 05:08:52;;;;;;;;;;;;;;;24.66;45.08;102757.63;5060255;28;19950;-72
2023/09/03 05:11:19;;;;;;;;;;;;;;;24.66;45.06;102761.13;5057738;28;20055;-72
2023/09/03 05:13:46;;;;;;;;;;;;;;;24.65;45.18;102761.28;5059458;28;20009;-72
2023/09/03 05:16:13;;;;;;;;;;;;;;;24.63;45.15;102769.44;5056098;28;20449;-72
2023/09/03 05:18:40;;;;;;;;;;;;;;;24.66;45.01;102776.28;5053397;28;19941;-71
2023/09/03 05:21:06;;;;;;;;;;;;;;;24.66;45.12;102771.78;5053349;28;20020;-71
2023/09/03 05:23:31;;;;;;;;;;;;;;;24.64;45.44;102771.13;5057420;28;20427;-73
2023/09/03 05:25:57;;;;;;;;;;;;;;;24.64;45.25;102783.59;5086264;27;20322;-72
2023/09/03 05:28:22;;;;;;;;;;;;;;;24.64;45.04;102784.44;5056490;28;19956;-71
2023/09/03 05:30:48;;;;;;;;;;;;;;;24.64;45.13;102784.44;5055598;28;19951;-71
2023/09/03 05:33:15;;;;;;;;;;;;;;;24.62;45.16;102790.94;5054695;28;19943;-72
2023/09/03 05:35:41;;;;;;;;;;;;;;;24.60;45.19;102788.44;5057348;28;19945;-71
2023/09/03 05:38:07;;;;;;;;;;;;;;;24.61;45.08;102787.44;5057145;28;20030;-72
2023/09/03 05:40:32;;;;;;;;;;;;;;;24.62;45.01;102794.41;5085969;27;19961;-71
2023/09/03 05:42:58;;;;;;;;;;;;;;;24.64;45.03;102795.09;5058485;28;19966;-71
2023/09/03 05:45:23;;;;;;;;;;;;;;;24.62;45.08;102791.75;5044574;28;20122;-72
2023/09/03 05:47:49;;;;;;;;;;;;;;;24.63;45.20;102788.09;5056301;28;19940;-71
2023/09/03 05:50:15;;;;;;;;;;;;;;;24.64;45.22;102791.59;5056667;28;20145;-71
2023/09/03 05:52:42;;;;;;;;;;;;;;;24.64;45.16;102784.44;5051767;28;20007;-71
2023/09/03 05:55:08;;;;;;;;;;;;;;;24.64;45.12;102786.25;5059886;28;19948;-71
2023/09/03 05:57:33;;;;;;;;;;;;;;;24.62;45.00;102783.78;5093020;27;20373;-73
2023/09/03 05:59:59;;;;;;;;;;;;;;;24.63;45.07;102789.94;5060972;28;19963;-71
2023/09/03 06:02:25;;;;;;;;;;;;;;;24.64;45.11;102786.25;5063260;28;19947;-72
2023/09/03 06:04:51;;;;;;;;;;;;;;;24.64;45.28;102788.94;5057209;28;19986;-71
2023/09/03 06:07:16;;;;;;;;;;;;;;;24.62;45.10;102789.09;5056207;28;19980;-71
2023/09/03 06:09:42;;;;;;;;;;;;;;;24.63;45.12;102792.59;5057137;28;20654;-72
2023/09/03 06:12:07;;;;;;;;;;;;;;;24.61;45.23;102792.75;5056311;28;20385;-73
2023/09/03 06:14:32;;;;;;;;;;;;;;;24.60;45.18;102798.25;5057298;28;19972;-71
2023/09/03 06:16:58;;;;;;;;;;;;;;;24.61;45.18;102797.25;5057558;28;20380;-73
2023/09/03 06:19:24;;;;;;;;;;;;;;;24.65;44.99;102796.75;5054492;28;19967;-73
2023/09/03 06:21:49;;;;;;;;;;;;;;;24.65;45.13;102790.59;5058395;28;19986;-71
2023/09/03 06:24:15;;;;;;;;;;;;;;;24.62;45.20;102799.75;5054880;28;20675;-71
2023/09/03 06:26:41;;;;;;;;;;;;;;;24.64;45.14;102803.06;5054625;28;19951;-73
2023/09/03 06:29:06;;;;;;;;;;;;;;;24.66;44.98;102813.56;5062346;28;20325;-72
2023/09/03 06:31:31;;;;;;;;;;;;;;;24.64;45.22;102813.72;5057395;28;19986;-71
2023/09/03 06:33:57;;;;;;;;;;;;;;;24.67;45.09;102804.56;5059956;28;19982;-71
2023/09/03 06:36:23;;;;;;;;;;;;;;;24.65;45.19;102807.41;5060544;28;19940;-71
2023/09/03 06:38:48;;;;;;;;;;;;;;;24.66;45.05;102810.91;5061779;28;20058;-71
2023/09/03 06:41:13;;;;;;;;;;;;;;;24.64;45.25;102804.91;5063676;28;19962;-71
2023/09/03 06:43:39;;;;;;;;;;;;;;;24.65;45.22;102806.56;5057234;28;19960;-71
2023/09/03 06:46:04;;;;;;;;;;;;;;;24.65;44.96;102810.06;5059145;28;19943;-72
2023/09/03 06:48:29;;;;;;;;;;;;;;;24.65;45.20;102819.91;5060684;28;20410;-72
2023/09/03 06:50:56;;;;;;;;;;;;;;;24.68;45.16;102811.56;5058282;28;19941;-71
2023/09/03 06:53:21;;;;;;;;;;;;;;;24.70;45.17;102817.56;5059340;28;20028;-72
2023/09/03 06:55:47;;;;;;;;;;;;;;;24.71;44.96;102817.41;5059953;28;19954;-71
2023/09/03 06:58:12;;;;;;;;;;;;;;;24.74;45.13;102812.72;5059471;28;20357;-72
2023/09/03 07:00:38;;;;;;;;;;;;;;;24.74;45.15;102813.56;5064636;28;19975;-70
2023/09/03 07:03:03;;;;;;;;;;;;;;;24.75;45.14;102819.72;5062732;28;19977;-71
2023/09/03 07:05:29;;;;;;;;;;;;;;;24.76;45.01;102826.72;5053608;28;20300;-69
2023/09/03 07:07:55;;;;;;;;;;;;;;;24.75;45.28;102835.72;5065982;28;19969;-71
2023/09/03 07:10:20;;;;;;;;;;;;;;;24.76;45.20;102816.06;5057647;28;19953;-71
2023/09/03 07:12:46;;;;;;;;;;;;;;;24.78;45.22;102836.25;5057063;28;19949;-72
2023/09/03 07:15:11;;;;;;;;;;;;;;;24.80;45.27;102833.41;5061251;28;20051;-71
2023/09/03 07:17:37;;;;;;;;;;;;;;;24.79;45.31;102827.25;5061930;28;19952;-71
2023/09/03 07:20:02;;;;;;;;;;;;;;;24.83;45.18;102828.56;5062132;28;19966;-71
2023/09/03 07:22:28;;;;;;;;;;;;;;;24.81;45.31;102822.59;5065325;28;19956;-72
2023/09/03 07:24:53;;;;;;;;;;;;;;;24.85;45.27;102825.75;5058694;28;20047;-70
2023/09/03 07:27:19;;;;;;;;;;;;;;;24.87;45.14;102829.06;5063157;28;20052;-69
2023/09/03 07:29:44;;;;;;;;;;;;;;;24.90;45.17;102828.75;5062667;28;19946;-71
2023/09/03 07:32:09;;;;;;;;;;;;;;;24.90;45.06;102828.75;5059102;28;20424;-70
2023/09/03 07:34:35;;;;;;;;;;;;;;;24.92;44.98;102832.06;5058395;28;19955;-72
2023/09/03 07:37:00;;;;;;;;;;;;;;;24.90;45.07;102837.56;5061400;28;19946;-69
2023/09/03 07:39:25;;;;;;;;;;;;;;;24.91;45.18;102831.22;5063001;28;19968;-70
2023/09/03 07:41:56;;;;;;;;;;;;;;;24.93;45.16;102839.91;5056063;28;20543;-69
2023/09/03 07:44:23;;;;;;;;;;;;;;;24.93;45.12;102837.22;5063383;28;19976;-70
2023/09/03 07:46:48;;;;;;;;;;;;;;;24.93;45.12;102833.72;5056102;28;20496;-70
2023/09/03 07:49:15;;;;;;;;;;;;;;;24.93;45.16;102839.91;5062738;28;19966;-72
2023/09/03 07:51:41;;;;;;;;;;;;;;;24.94;45.02;102840.72;5059346;28;19950;-70
2023/09/03 07:54:06;;;;;;;;;;;;;;;24.95;45.09;102845.88;5058816;28;19950;-69
2023/09/03 07:56:31;;;;;;;;;;;;;;;24.96;45.15;102847.59;5058324;28;19958;-70
2023/09/03 07:58:57;;;;;;;;;;;;;;;24.96;45.06;102844.09;5059862;28;19965;-68
2023/09/03 08:01:22;;;;;;;;;;;;;;;24.97;45.23;102857.25;5059524;28;20019;-70
2023/09/03 08:03:48;;;;;;;;;;;;;;;24.98;45.00;102855.41;5058301;28;20018;-72
2023/09/03 08:06:16;;;;;;;;;;;;;;;24.98;45.05;102866.06;5059122;28;19952;-70
2023/09/03 08:08:43;;;;;;;;;;;;;;;24.98;45.14;102860.75;5063678;28;19960;-70
2023/09/03 08:11:08;;;;;;;;;;;;;;;24.98;45.17;102869.56;5056651;28;20352;-68
2023/09/03 08:13:34;;;;;;;;;;;;;;;24.98;45.02;102866.91;5059843;28;19944;-68
2023/09/03 08:15:59;;;;;;;;;;;;;;;24.99;44.94;102873.94;5060315;28;20467;-70
2023/09/03 08:18:25;;;;;;;;;;;;;;;25.00;44.99;102875.59;5056351;28;20032;-70
2023/09/03 08:20:50;;;;;;;;;;;;;;;25.00;44.96;102875.59;5062104;28;19986;-68
2023/09/03 08:23:16;;;;;;;;;;;;;;;25.01;44.96;102876.44;5057978;28;20028;-68
2023/09/03 08:25:41;;;;;;;;;;;;;;;25.03;45.06;102876.25;5061753;28;19947;-69
2023/09/03 08:28:10;;;;;;;;;;;;;;;25.03;45.08;102869.09;5059946;28;20778;-68
2023/09/03 08:30:35;;;;;;;;;;;;;;;25.04;45.09;102881.44;5062695;28;19939;-70
2023/09/03 08:33:01;;;;;;;;;;;;;;;25.04;45.07;102881.44;5059115;28;19987;-68
2023/09/03 08:35:27;;;;;;;;;;;;;;;25.05;45.05;102876.94;5064652;28;19951;-68
2023/09/03 08:37:52;;;;;;;;;;;;;;;25.06;45.33;102882.09;5059595;28;19941;-70
2023/09/03 08:40:20;;;;;;;;;;;;;;;25.08;45.02;102872.09;5057033;28;19963;-68
2023/09/03 08:42:47;;;;;;;;;;;;;;;25.07;45.03;102869.59;5056150;28;20311;-70
2023/09/03 08:45:13;;;;;;;;;;;;;;;25.06;45.09;102874.09;5057031;28;19986;-68
2023/09/03 08:47:43;;;;;;;;;;;;;;;25.07;45.16;102888.25;5061992;28;20308;-68
2023/09/03 08:50:09;;;;;;;;;;;;;;;25.08;44.86;102881.94;5054389;28;22250;-68
2023/09/03 08:52:38;;;;;;;;;;;;;;;25.09;44.99;102880.94;5061828;28;19934;-69
2023/09/03 08:55:04;;;;;;;;;;;;;;;25.08;44.94;102873.94;5057340;28;19959;-70
2023/09/03 08:57:30;;;;;;;;;;;;;;;25.09;45.21;102883.59;5061212;28;19994;-68
2023/09/03 08:59:56;;;;;;;;;;;;;;;25.09;45.08;102888.94;5056879;28;20075;-68
2023/09/03 09:02:22;;;;;;;;;;;;;;;25.09;44.95;102887.09;5057562;28;19975;-68
2023/09/03 09:04:47;;;;;;;;;;;;;;;25.10;45.06;102890.59;5059072;28;19950;-68
2023/09/03 09:07:13;;;;;;;;;;;;;;;25.11;45.22;102889.59;5066920;28;19953;-70
2023/09/03 09:09:39;;;;;;;;;;;;;;;25.09;45.00;102897.75;5064038;28;20069;-68
2023/09/03 09:12:21;;;;;;;;;;;;;;;25.09;45.27;102904.91;5077941;28;20316;-68
2023/09/03 09:14:54;;;;;;;;;;;;;;;25.10;45.27;102898.59;5067281;28;20514;-70
2023/09/03 09:17:19;;;;;;;;;;;;;;;25.11;45.16;102909.09;5061229;28;19988;-68
2023/09/03 09:19:45;;;;;;;;;;;;;;;25.11;45.04;102909.09;5061478;28;20407;-68
2023/09/03 09:22:10;;;;;;;;;;;;;;;25.14;44.96;102910.63;5061977;28;20458;-70
2023/09/03 09:24:45;;;;;;;;;;;;;;;25.14;45.05;102911.44;5062024;28;19948;-70
2023/09/03 09:27:15;;;;;;;;;;;;;;;25.13;45.04;102923.06;5060368;28;19948;-69
2023/09/03 09:29:41;;;;;;;;;;;;;;;25.13;45.08;102919.56;5063763;28;20023;-69
2023/09/03 09:32:15;;;;;;;;;;;;;;;25.14;44.88;102922.09;5058691;28;19999;-70
2023/09/03 09:34:44;;;;;;;;;;;;;;;25.11;44.86;102918.91;5055838;28;19958;-70
2023/09/03 09:37:09;;;;;;;;;;;;;;;25.13;44.90;102920.41;5058065;28;19979;-68
2023/09/03 09:39:44;;;;;;;;;;;;;;;25.13;45.07;102923.06;5041034;28;20051;-68
2023/09/03 09:42:13;;;;;;;;;;;;;;;25.14;44.91;102932.78;5059349;28;20252;-68
2023/09/03 09:44:50;;;;;;;;;;;;;;;25.13;45.11;102928.41;5060667;28;19946;-68
2023/09/03 09:47:16;;;;;;;;;;;;;;;25.14;45.06;102943.44;5061868;28;19943;-68
2023/09/03 09:49:42;;;;;;;;;;;;;;;25.15;44.87;102938.94;5058914;28;20330;-69
2023/09/03 09:52:09;;;;;;;;;;;;;;;25.12;45.14;102942.75;5057550;28;20348;-68
2023/09/03 09:54:44;;;;;;;;;;;;;;;25.14;44.91;102932.78;5058539;28;19940;-69
2023/09/03 09:57:13;;;;;;;;;;;;;;;25.15;45.06;102929.09;5065362;28;20025;-70
2023/09/03 09:59:39;;;;;;;;;;;;;;;25.14;45.06;102926.59;5053538;28;20016;-68
2023/09/03 10:02:15;;;;;;;;;;;;;;;25.16;45.16;102924.59;5058796;28;20303;-68
2023/09/03 10:04:44;;;;;;;;;;;;;;;25.18;45.02;102930.59;5059236;28;19940;-68
2023/09/03 10:07:10;;;;;;;;;;;;;;;25.15;45.10;102936.28;5055869;28;19991;-68
2023/09/03 10:09:36;;;;;;;;;;;;;;;25.16;44.93;102930.78;5055420;28;20580;-68
2023/09/03 10:12:02;;;;;;;;;;;;;;;25.15;45.02;102926.44;5051043;28;19967;-68
2023/09/03 10:14:28;;;;;;;;;;;;;;;25.18;44.74;102930.59;5059090;28;19944;-69
2023/09/03 10:16:55;;;;;;;;;;;;;;;25.14;45.09;102926.59;5056930;28;19988;-68
2023/09/03 10:19:23;;;;;;;;;;;;;;;25.17;44.88;102939.59;5065698;28;19948;-69
2023/09/03 10:21:49;;;;;;;;;;;;;;;25.15;44.95;102929.09;5056056;28;20393;-67
2023/09/03 10:24:15;;;;;;;;;;;;;;;25.15;44.97;102928.28;5058397;28;19941;-69
2023/09/03 10:26:44;;;;;;;;;;;;;;;25.15;45.13;102925.59;5059850;28;19940;-68
2023/09/03 10:29:11;;;;;;;;;;;;;;;25.15;44.89;102920.28;5058316;28;19954;-69
2023/09/03 10:31:38;;;;;;;;;;;;;;;25.16;44.89;102927.28;5054593;28;20019;-67
2023/09/03 10:34:07;;;;;;;;;;;;;;;25.15;45.11;102930.94;5062543;28;19940;-68
2023/09/03 10:36:33;;;;;;;;;;;;;;;25.19;44.84;102938.44;5058955;28;19943;-69
2023/09/03 10:39:19;;;;;;;;;;;;;;;25.19;45.03;102937.59;5055661;28;20047;-68
2023/09/03 10:41:44;;;;;;;;;;;;;;;25.20;44.88;102945.44;5056856;28;20535;-68
2023/09/03 10:44:15;;;;;;;;;;;;;;;25.17;45.02;102948.44;5057837;28;19954;-69
2023/09/03 10:46:58;;;;;;;;;;;;;;;25.18;44.78;102947.44;5062013;28;19941;-68
2023/09/03 10:49:38;;;;;;;;;;;;;;;25.18;44.86;102955.44;5057118;28;20001;-68
2023/09/03 10:52:24;;;;;;;;;;;;;;;25.18;44.92;102955.44;5063484;28;20623;-68
2023/09/03 10:55:09;;;;;;;;;;;;;;;25.20;44.86;102955.25;5063446;28;20000;-69
2023/09/03 10:57:35;;;;;;;;;;;;;;;25.19;44.92;102954.44;5061679;28;19939;-68
2023/09/03 11:00:04;;;;;;;;;;;;;;;25.21;44.67;102954.25;5058616;28;20324;-68
2023/09/03 11:02:30;;;;;;;;;;;;;;;25.19;44.73;102950.94;5060952;28;19950;-70
2023/09/03 11:05:11;;;;;;;;;;;;;;;25.22;44.71;102950.59;5060829;28;20435;-68
2023/09/03 11:07:37;;;;;;;;;;;;;;;25.15;44.70;102941.59;5058875;28;19988;-68
2023/09/03 11:10:21;;;;;;;;;;;;;;;25.21;44.90;102947.09;5063488;28;19951;-68
2023/09/03 11:12:47;;;;;;;;;;;;;;;25.18;44.96;102941.28;5055598;28;19985;-68
2023/09/03 11:15:13;;;;;;;;;;;;;;;25.20;44.96;102944.59;5053870;28;19943;-70
2023/09/03 11:17:41;;;;;;;;;;;;;;;25.21;44.73;102947.09;5058595;28;20432;-67
2023/09/03 11:20:08;;;;;;;;;;;;;;;25.23;44.80;102950.44;5060938;28;20044;-68
2023/09/03 11:22:37;;;;;;;;;;;;;;;25.23;44.70;102944.25;5060083;28;19949;-68
2023/09/03 11:25:02;;;;;;;;;;;;;;;25.20;44.86;102945.44;5062698;28;19999;-68
2023/09/03 11:27:28;;;;;;;;;;;;;;;25.23;44.85;102942.44;5064610;28;20103;-68
2023/09/03 11:30:04;;;;;;;;;;;;;;;25.22;44.82;102937.28;5061962;28;19953;-69
2023/09/03 11:32:39;;;;;;;;;;;;;;;25.21;45.08;102939.09;5057093;28;20427;-68
2023/09/03 11:35:04;;;;;;;;;;;;;;;25.23;44.86;102944.25;5061102;28;19986;-69
2023/09/03 11:37:29;;;;;;;;;;;;;;;25.23;44.88;102939.75;5061130;28;19972;-67
2023/09/03 11:39:55;;;;;;;;;;;;;;;25.21;45.00;102939.09;5063193;28;19967;-68
2023/09/03 11:42:22;;;;;;;;;;;;;;;25.22;44.94;102929.28;5093152;27;19967;-68
2023/09/03 11:44:50;;;;;;;;;;;;;;;25.22;44.85;102924.78;5059878;28;19940;-69
2023/09/03 11:47:16;;;;;;;;;;;;;;;25.24;44.89;102922.78;5058730;28;19988;-67
2023/09/03 11:49:45;;;;;;;;;;;;;;;25.22;44.76;102923.94;5060826;28;20631;-68
2023/09/03 11:52:11;;;;;;;;;;;;;;;25.24;44.98;102935.25;5063841;28;19946;-67
2023/09/03 11:54:36;;;;;;;;;;;;;;;25.25;44.68;102935.09;5057322;28;19938;-67
2023/09/03 11:57:03;;;;;;;;;;;;;;;25.24;45.08;102935.25;5059645;28;19975;-67
2023/09/03 11:59:28;;;;;;;;;;;;;;;25.24;44.69;102924.59;5057692;28;19952;-67
2023/09/03 12:01:54;;;;;;;;;;;;;;;25.23;44.93;102928.28;5057477;28;19941;-70
2023/09/03 12:04:20;;;;;;;;;;;;;;;25.22;44.86;102934.59;5059241;28;20630;-69
2023/09/03 12:06:45;;;;;;;;;;;;;;;25.23;44.96;102933.59;5064303;28;20007;-71
2023/09/03 12:09:11;;;;;;;;;;;;;;;25.21;44.73;102931.09;5063292;28;19952;-69
2023/09/03 12:11:36;;;;;;;;;;;;;;;25.25;44.64;102926.28;5059197;28;19946;-69
2023/09/03 12:14:01;;;;;;;;;;;;;;;25.18;44.46;102912.78;5059112;28;19944;-70
2023/09/03 12:16:28;;;;;;;;;;;;;;;25.27;44.48;102930.44;5063426;28;19963;-71
2023/09/03 12:18:57;;;;;;;;;;;;;;;25.28;44.29;102926.75;5054047;28;19952;-69
2023/09/03 12:21:33;;;;;;;;;;;;;;;25.28;44.32;102929.44;5058103;28;19989;-69
2023/09/03 12:24:00;;;;;;;;;;;;;;;25.28;44.37;102931.25;5056272;28;19951;-69
2023/09/03 12:26:26;;;;;;;;;;;;;;;25.25;44.41;102929.78;5059128;28;20340;-69
2023/09/03 12:28:54;;;;;;;;;;;;;;;25.27;44.62;102929.59;5060143;28;19975;-69
2023/09/03 12:31:20;;;;;;;;;;;;;;;25.28;44.24;102924.09;5062413;28;20042;-67
2023/09/03 12:33:50;;;;;;;;;;;;;;;25.26;44.21;102928.75;5055343;28;20130;-67
2023/09/03 12:36:17;;;;;;;;;;;;;;;25.29;44.32;102924.94;5056325;28;19948;-69